sensor_id;sensor_type;location;lat;lon;timestamp;P1;P2;P0
12246;PMS7003;6186;52.022;4.692;2023-02-12T00:02:03;9.75;9.00;6.00
12246;PMS7003;6186;52.022;4.692;2023-02-12T00:04:28;9.50;8.00;4.00
12246;PMS7003;6186;52.022;4.692;2023-02-12T00:06:53;9.00;9.00;4.00
12246;PMS7003;6186;52.022;4.692;2023-02-12T00:09:19;9.75;9.00;5.50
12246;PMS7003;6186;52.022;4.692;2023-02-12T00:11:44;9.75;8.75;4.50
12246;PMS7003;6186;52.022;4.692;2023-02-12T00:14:09;11.50;9.25;6.00
12246;PMS7003;6186;52.022;4.692;2023-02-12T00:16:35;10.25;9.00;6.00
12246;PMS7003;6186;52.022;4.692;2023-02-12T00:19:00;9.50;8.75;4.00
12246;PMS7003;6186;52.022;4.692;2023-02-12T00:21:25;9.00;8.00;4.00
12246;PMS7003;6186;52.022;4.692;2023-02-12T00:23:51;9.25;8.75;4.00
12246;PMS7003;6186;52.022;4.692;2023-02-12T00:26:17;12.50;9.00;5.00
12246;PMS7003;6186;52.022;4.692;2023-02-12T00:28:44;9.20;9.20;6.00
12246;PMS7003;6186;52.022;4.692;2023-02-12T00:31:11;11.75;10.25;4.50
12246;PMS7003;6186;52.022;4.692;2023-02-12T00:33:39;11.00;9.40;4.00
12246;PMS7003;6186;52.022;4.692;2023-02-12T00:36:05;9.20;8.20;4.20
12246;PMS7003;6186;52.022;4.692;2023-02-12T00:38:31;9.40;9.00;4.20
12246;PMS7003;6186;52.022;4.692;2023-02-12T00:40:57;10.25;9.00;6.00
12246;PMS7003;6186;52.022;4.692;2023-02-12T00:43:22;11.00;10.75;6.00
12246;PMS7003;6186;52.022;4.692;2023-02-12T00:45:48;12.00;12.00;6.00
12246;PMS7003;6186;52.022;4.692;2023-02-12T00:48:13;12.50;10.25;4.00
12246;PMS7003;6186;52.022;4.692;2023-02-12T00:50:39;10.20;10.20;6.00
12246;PMS7003;6186;52.022;4.692;2023-02-12T00:53:08;12.60;10.80;6.00
12246;PMS7003;6186;52.022;4.692;2023-02-12T00:55:33;10.25;10.25;6.25
12246;PMS7003;6186;52.022;4.692;2023-02-12T00:57:59;14.00;12.00;6.40
12246;PMS7003;6186;52.022;4.692;2023-02-12T01:00:25;8.50;8.00;4.00
12246;PMS7003;6186;52.022;4.692;2023-02-12T01:02:50;14.75;10.50;5.50
12246;PMS7003;6186;52.022;4.692;2023-02-12T01:05:16;12.25;9.00;4.50
12246;PMS7003;6186;52.022;4.692;2023-02-12T01:07:41;11.75;9.00;6.00
12246;PMS7003;6186;52.022;4.692;2023-02-12T01:10:07;13.00;9.75;4.00
12246;PMS7003;6186;52.022;4.692;2023-02-12T01:12:32;13.00;12.00;6.80
12246;PMS7003;6186;52.022;4.692;2023-02-12T01:14:58;8.50;8.50;4.00
12246;PMS7003;6186;52.022;4.692;2023-02-12T01:17:24;12.00;10.00;6.00
12246;PMS7003;6186;52.022;4.692;2023-02-12T01:19:49;12.00;10.00;4.50
12246;PMS7003;6186;52.022;4.692;2023-02-12T01:22:15;11.75;9.75;4.00
12246;PMS7003;6186;52.022;4.692;2023-02-12T01:24:40;10.00;9.00;4.00
12246;PMS7003;6186;52.022;4.692;2023-02-12T01:27:05;12.75;10.25;4.00
12246;PMS7003;6186;52.022;4.692;2023-02-12T01:29:31;10.25;9.50;6.00
12246;PMS7003;6186;52.022;4.692;2023-02-12T01:31:56;10.25;9.75;5.25
12246;PMS7003;6186;52.022;4.692;2023-02-12T01:34:22;12.75;9.50;6.00
12246;PMS7003;6186;52.022;4.692;2023-02-12T01:36:47;10.00;9.00;4.00
12246;PMS7003;6186;52.022;4.692;2023-02-12T01:39:13;11.25;9.75;6.00
12246;PMS7003;6186;52.022;4.692;2023-02-12T01:41:40;8.75;8.00;4.00
12246;PMS7003;6186;52.022;4.692;2023-02-12T01:46:45;13.00;12.60;6.60
12246;PMS7003;6186;52.022;4.692;2023-02-12T01:49:16;14.40;11.60;6.00
12246;PMS7003;6186;52.022;4.692;2023-02-12T01:51:47;14.00;13.00;6.00
12246;PMS7003;6186;52.022;4.692;2023-02-12T01:54:16;12.40;10.40;5.80
12246;PMS7003;6186;52.022;4.692;2023-02-12T01:56:44;14.00;13.00;7.00
12246;PMS7003;6186;52.022;4.692;2023-02-12T01:59:10;12.60;9.60;6.00
12246;PMS7003;6186;52.022;4.692;2023-02-12T02:01:36;13.80;12.40;5.60
12246;PMS7003;6186;52.022;4.692;2023-02-12T02:04:07;12.20;11.40;6.40
12246;PMS7003;6186;52.022;4.692;2023-02-12T02:06:40;12.40;11.40;6.60
12246;PMS7003;6186;52.022;4.692;2023-02-12T02:09:12;14.00;12.00;6.00
12246;PMS7003;6186;52.022;4.692;2023-02-12T02:11:38;13.00;11.40;6.80
12246;PMS7003;6186;52.022;4.692;2023-02-12T02:14:22;13.60;12.60;6.80
12246;PMS7003;6186;52.022;4.692;2023-02-12T02:31:20;13.80;13.00;7.40
12246;PMS7003;6186;52.022;4.692;2023-02-12T02:33:54;13.60;12.00;7.00
12246;PMS7003;6186;52.022;4.692;2023-02-12T02:36:40;15.60;14.00;8.20
12246;PMS7003;6186;52.022;4.692;2023-02-12T02:44:25;13.20;12.00;7.40
12246;PMS7003;6186;52.022;4.692;2023-02-12T02:46:56;13.80;13.00;6.80
12246;PMS7003;6186;52.022;4.692;2023-02-12T02:49:26;13.20;12.00;7.00
12246;PMS7003;6186;52.022;4.692;2023-02-12T02:52:02;12.80;11.80;6.00
12246;PMS7003;6186;52.022;4.692;2023-02-12T02:54:34;15.40;13.20;7.60
12246;PMS7003;6186;52.022;4.692;2023-02-12T02:57:07;10.40;9.80;6.20
12246;PMS7003;6186;52.022;4.692;2023-02-12T02:59:41;15.20;13.60;8.40
12246;PMS7003;6186;52.022;4.692;2023-02-12T03:04:43;13.00;12.00;7.00
12246;PMS7003;6186;52.022;4.692;2023-02-12T03:07:15;15.60;13.00;7.20
12246;PMS7003;6186;52.022;4.692;2023-02-12T03:12:53;14.80;12.40;7.00
12246;PMS7003;6186;52.022;4.692;2023-02-12T03:17:54;13.00;11.80;7.00
12246;PMS7003;6186;52.022;4.692;2023-02-12T03:20:23;12.80;12.00;7.00
12246;PMS7003;6186;52.022;4.692;2023-02-12T03:23:07;13.00;10.40;7.00
12246;PMS7003;6186;52.022;4.692;2023-02-12T03:25:43;16.80;12.00;8.00
12246;PMS7003;6186;52.022;4.692;2023-02-12T03:28:16;14.80;14.40;9.00
12246;PMS7003;6186;52.022;4.692;2023-02-12T03:36:07;12.00;11.20;7.00
12246;PMS7003;6186;52.022;4.692;2023-02-12T03:38:48;15.00;13.40;8.00
12246;PMS7003;6186;52.022;4.692;2023-02-12T03:44:08;14.40;12.60;7.00
12246;PMS7003;6186;52.022;4.692;2023-02-12T03:46:54;18.00;14.80;7.80
12246;PMS7003;6186;52.022;4.692;2023-02-12T03:49:28;12.60;12.20;8.00
12246;PMS7003;6186;52.022;4.692;2023-02-12T03:51:59;15.60;14.00;8.00
12246;PMS7003;6186;52.022;4.692;2023-02-12T03:54:24;15.00;12.00;7.00
12246;PMS7003;6186;52.022;4.692;2023-02-12T03:56:55;11.40;10.20;7.00
12246;PMS7003;6186;52.022;4.692;2023-02-12T03:59:25;12.80;11.60;6.60
12246;PMS7003;6186;52.022;4.692;2023-02-12T04:01:51;19.20;15.40;8.20
12246;PMS7003;6186;52.022;4.692;2023-02-12T04:04:18;12.60;12.60;7.00
12246;PMS7003;6186;52.022;4.692;2023-02-12T04:06:45;12.25;11.25;7.00
12246;PMS7003;6186;52.022;4.692;2023-02-12T04:09:13;17.40;13.00;8.00
12246;PMS7003;6186;52.022;4.692;2023-02-12T04:25:40;15.20;13.40;8.00
12246;PMS7003;6186;52.022;4.692;2023-02-12T04:30:49;15.00;13.40;8.20
12246;PMS7003;6186;52.022;4.692;2023-02-12T04:33:17;12.20;11.80;7.00
12246;PMS7003;6186;52.022;4.692;2023-02-12T04:35:50;14.80;12.20;6.60
12246;PMS7003;6186;52.022;4.692;2023-02-12T04:38:20;14.20;12.80;8.00
12246;PMS7003;6186;52.022;4.692;2023-02-12T04:40:50;14.00;12.80;7.00
12246;PMS7003;6186;52.022;4.692;2023-02-12T04:43:30;13.80;13.40;7.80
12246;PMS7003;6186;52.022;4.692;2023-02-12T04:45:58;17.00;13.00;7.00
12246;PMS7003;6186;52.022;4.692;2023-02-12T04:48:24;16.75;13.75;8.00
12246;PMS7003;6186;52.022;4.692;2023-02-12T04:50:49;13.25;13.00;7.25
12246;PMS7003;6186;52.022;4.692;2023-02-12T04:53:15;15.75;14.25;8.00
12246;PMS7003;6186;52.022;4.692;2023-02-12T04:55:41;14.75;13.25;7.00
12246;PMS7003;6186;52.022;4.692;2023-02-12T04:58:06;14.25;14.00;8.00
12246;PMS7003;6186;52.022;4.692;2023-02-12T05:00:31;13.25;12.25;7.00
12246;PMS7003;6186;52.022;4.692;2023-02-12T05:02:57;13.60;12.80;7.00
12246;PMS7003;6186;52.022;4.692;2023-02-12T05:05:23;13.00;13.00;7.25
12246;PMS7003;6186;52.022;4.692;2023-02-12T05:07:48;14.00;12.75;7.00
12246;PMS7003;6186;52.022;4.692;2023-02-12T05:10:14;14.75;13.50;7.00
12246;PMS7003;6186;52.022;4.692;2023-02-12T05:12:39;11.50;11.00;7.00
12246;PMS7003;6186;52.022;4.692;2023-02-12T05:15:05;13.75;12.75;7.00
12246;PMS7003;6186;52.022;4.692;2023-02-12T05:17:30;14.00;12.50;7.00
12246;PMS7003;6186;52.022;4.692;2023-02-12T05:19:56;13.25;12.25;7.00
12246;PMS7003;6186;52.022;4.692;2023-02-12T05:22:21;15.50;13.75;6.75
12246;PMS7003;6186;52.022;4.692;2023-02-12T05:24:46;13.75;12.00;8.00
12246;PMS7003;6186;52.022;4.692;2023-02-12T05:27:12;14.00;13.00;8.00
12246;PMS7003;6186;52.022;4.692;2023-02-12T05:29:37;11.75;11.00;6.00
12246;PMS7003;6186;52.022;4.692;2023-02-12T05:32:03;12.00;11.50;7.00
12246;PMS7003;6186;52.022;4.692;2023-02-12T05:34:29;13.00;12.00;6.60
12246;PMS7003;6186;52.022;4.692;2023-02-12T05:36:54;12.75;11.75;7.00
12246;PMS7003;6186;52.022;4.692;2023-02-12T05:39:19;13.50;12.50;6.75
12246;PMS7003;6186;52.022;4.692;2023-02-12T05:41:45;14.75;11.75;5.75
12246;PMS7003;6186;52.022;4.692;2023-02-12T05:44:10;14.25;12.25;6.00
12246;PMS7003;6186;52.022;4.692;2023-02-12T05:46:36;12.50;12.00;6.00
12246;PMS7003;6186;52.022;4.692;2023-02-12T05:49:02;12.60;11.20;6.80
12246;PMS7003;6186;52.022;4.692;2023-02-12T05:51:29;13.00;11.20;6.00
12246;PMS7003;6186;52.022;4.692;2023-02-12T05:53:58;16.60;11.20;6.00
12246;PMS7003;6186;52.022;4.692;2023-02-12T05:56:26;13.00;12.20;7.80
12246;PMS7003;6186;52.022;4.692;2023-02-12T05:58:56;13.60;13.00;7.80
12246;PMS7003;6186;52.022;4.692;2023-02-12T06:01:26;12.60;12.20;6.80
12246;PMS7003;6186;52.022;4.692;2023-02-12T06:03:53;14.20;13.40;7.60
12246;PMS7003;6186;52.022;4.692;2023-02-12T06:06:18;12.60;11.00;6.20
12246;PMS7003;6186;52.022;4.692;2023-02-12T06:08:46;12.00;10.00;6.00
12246;PMS7003;6186;52.022;4.692;2023-02-12T06:11:12;10.80;10.60;5.60
12246;PMS7003;6186;52.022;4.692;2023-02-12T06:13:38;14.40;12.00;6.40
12246;PMS7003;6186;52.022;4.692;2023-02-12T06:16:04;12.00;12.00;6.00
12246;PMS7003;6186;52.022;4.692;2023-02-12T06:18:30;13.00;10.75;4.25
12246;PMS7003;6186;52.022;4.692;2023-02-12T06:20:56;12.00;11.00;6.25
12246;PMS7003;6186;52.022;4.692;2023-02-12T06:23:22;12.50;10.75;6.00
12246;PMS7003;6186;52.022;4.692;2023-02-12T06:25:48;12.00;11.40;6.20
12246;PMS7003;6186;52.022;4.692;2023-02-12T06:28:15;12.00;11.00;6.00
12246;PMS7003;6186;52.022;4.692;2023-02-12T06:30:41;12.00;11.40;6.20
12246;PMS7003;6186;52.022;4.692;2023-02-12T06:33:07;13.60;13.20;6.60
12246;PMS7003;6186;52.022;4.692;2023-02-12T06:35:34;11.80;11.00;6.40
12246;PMS7003;6186;52.022;4.692;2023-02-12T06:38:00;11.40;10.80;6.00
12246;PMS7003;6186;52.022;4.692;2023-02-12T06:40:25;13.75;11.75;6.50
12246;PMS7003;6186;52.022;4.692;2023-02-12T06:42:50;12.00;11.25;6.00
12246;PMS7003;6186;52.022;4.692;2023-02-12T06:45:16;12.00;8.25;4.25
12246;PMS7003;6186;52.022;4.692;2023-02-12T06:47:41;11.50;10.00;7.00
12246;PMS7003;6186;52.022;4.692;2023-02-12T06:50:06;15.00;12.25;7.00
12246;PMS7003;6186;52.022;4.692;2023-02-12T06:52:32;13.00;13.00;8.00
12246;PMS7003;6186;52.022;4.692;2023-02-12T06:54:57;12.50;11.25;6.75
12246;PMS7003;6186;52.022;4.692;2023-02-12T06:57:23;12.00;8.75;5.50
12246;PMS7003;6186;52.022;4.692;2023-02-12T06:59:48;13.75;11.00;6.00
12246;PMS7003;6186;52.022;4.692;2023-02-12T07:02:14;12.25;12.00;6.00
12246;PMS7003;6186;52.022;4.692;2023-02-12T07:04:39;11.75;11.00;6.00
12246;PMS7003;6186;52.022;4.692;2023-02-12T07:07:04;13.00;12.25;7.00
12246;PMS7003;6186;52.022;4.692;2023-02-12T07:09:30;12.50;11.25;6.00
12246;PMS7003;6186;52.022;4.692;2023-02-12T07:11:59;16.00;13.25;6.75
12246;PMS7003;6186;52.022;4.692;2023-02-12T07:14:24;16.60;14.60;7.20
12246;PMS7003;6186;52.022;4.692;2023-02-12T07:16:50;14.60;13.60;7.00
12246;PMS7003;6186;52.022;4.692;2023-02-12T07:19:16;13.50;12.50;7.00
12246;PMS7003;6186;52.022;4.692;2023-02-12T07:21:41;13.60;12.60;6.40
12246;PMS7003;6186;52.022;4.692;2023-02-12T07:24:09;12.25;12.25;7.00
12246;PMS7003;6186;52.022;4.692;2023-02-12T07:26:38;14.60;12.00;7.20
12246;PMS7003;6186;52.022;4.692;2023-02-12T07:29:05;14.60;13.60;7.00
12246;PMS7003;6186;52.022;4.692;2023-02-12T07:31:30;17.00;15.25;7.75
12246;PMS7003;6186;52.022;4.692;2023-02-12T07:33:56;15.25;13.25;7.75
12246;PMS7003;6186;52.022;4.692;2023-02-12T07:36:23;15.40;13.00;7.00
12246;PMS7003;6186;52.022;4.692;2023-02-12T07:38:50;14.20;12.80;8.00
12246;PMS7003;6186;52.022;4.692;2023-02-12T07:43:45;11.80;11.00;6.40
12246;PMS7003;6186;52.022;4.692;2023-02-12T07:46:14;18.80;15.20;8.00
12246;PMS7003;6186;52.022;4.692;2023-02-12T07:48:42;18.80;14.60;7.00
12246;PMS7003;6186;52.022;4.692;2023-02-12T07:51:09;16.60;14.80;7.60
12246;PMS7003;6186;52.022;4.692;2023-02-12T07:53:37;17.20;15.40;8.00
12246;PMS7003;6186;52.022;4.692;2023-02-12T07:56:04;14.20;12.80;7.80
12246;PMS7003;6186;52.022;4.692;2023-02-12T07:58:37;14.80;12.80;7.80
12246;PMS7003;6186;52.022;4.692;2023-02-12T08:01:10;14.80;13.20;7.60
12246;PMS7003;6186;52.022;4.692;2023-02-12T08:03:50;17.40;14.40;7.60
12246;PMS7003;6186;52.022;4.692;2023-02-12T08:06:20;19.00;14.50;7.25
12246;PMS7003;6186;52.022;4.692;2023-02-12T08:08:49;13.60;12.60;7.00
12246;PMS7003;6186;52.022;4.692;2023-02-12T08:11:15;17.60;14.40;7.00
12246;PMS7003;6186;52.022;4.692;2023-02-12T08:13:42;14.20;12.40;7.00
12246;PMS7003;6186;52.022;4.692;2023-02-12T08:16:09;13.20;12.20;6.40
12246;PMS7003;6186;52.022;4.692;2023-02-12T08:18:36;20.40;13.40;7.00
12246;PMS7003;6186;52.022;4.692;2023-02-12T08:21:03;14.25;12.25;7.00
12246;PMS7003;6186;52.022;4.692;2023-02-12T08:23:30;13.40;11.80;6.20
12246;PMS7003;6186;52.022;4.692;2023-02-12T08:28:35;12.60;11.40;6.80
12246;PMS7003;6186;52.022;4.692;2023-02-12T08:31:03;16.20;13.80;6.80
12246;PMS7003;6186;52.022;4.692;2023-02-12T08:33:31;13.40;13.40;6.40
12246;PMS7003;6186;52.022;4.692;2023-02-12T08:36:03;14.75;12.00;7.00
12246;PMS7003;6186;52.022;4.692;2023-02-12T08:38:36;14.40;12.80;7.00
12246;PMS7003;6186;52.022;4.692;2023-02-12T08:41:06;11.40;10.40;7.00
12246;PMS7003;6186;52.022;4.692;2023-02-12T08:43:33;14.60;12.40;6.80
12246;PMS7003;6186;52.022;4.692;2023-02-12T08:48:33;13.40;12.00;6.60
12246;PMS7003;6186;52.022;4.692;2023-02-12T08:51:09;16.00;12.00;7.00
12246;PMS7003;6186;52.022;4.692;2023-02-12T08:53:37;10.60;10.20;6.00
12246;PMS7003;6186;52.022;4.692;2023-02-12T08:56:04;15.20;13.80;7.60
12246;PMS7003;6186;52.022;4.692;2023-02-12T08:58:30;12.40;12.00;6.60
12246;PMS7003;6186;52.022;4.692;2023-02-12T09:00:56;12.80;11.40;6.40
12246;PMS7003;6186;52.022;4.692;2023-02-12T09:03:21;12.75;12.25;7.00
12246;PMS7003;6186;52.022;4.692;2023-02-12T09:05:47;11.00;9.20;5.20
12246;PMS7003;6186;52.022;4.692;2023-02-12T09:08:13;17.00;12.50;6.25
12246;PMS7003;6186;52.022;4.692;2023-02-12T09:10:39;14.75;12.75;7.25
12246;PMS7003;6186;52.022;4.692;2023-02-12T09:13:06;13.00;13.00;7.00
12246;PMS7003;6186;52.022;4.692;2023-02-12T09:15:38;17.00;13.60;8.00
12246;PMS7003;6186;52.022;4.692;2023-02-12T09:18:06;14.20;14.20;7.00
12246;PMS7003;6186;52.022;4.692;2023-02-12T09:20:32;19.00;14.75;8.50
12246;PMS7003;6186;52.022;4.692;2023-02-12T09:22:58;12.20;12.00;7.00
12246;PMS7003;6186;52.022;4.692;2023-02-12T09:25:24;14.20;13.40;7.00
12246;PMS7003;6186;52.022;4.692;2023-02-12T09:27:49;13.00;12.75;7.75
12246;PMS7003;6186;52.022;4.692;2023-02-12T09:30:15;18.50;15.25;7.75
12246;PMS7003;6186;52.022;4.692;2023-02-12T09:32:41;15.50;14.00;7.75
12246;PMS7003;6186;52.022;4.692;2023-02-12T09:35:06;14.00;12.00;7.00
12246;PMS7003;6186;52.022;4.692;2023-02-12T09:37:32;14.25;13.50;8.00
12246;PMS7003;6186;52.022;4.692;2023-02-12T09:39:57;17.00;15.00;8.00
12246;PMS7003;6186;52.022;4.692;2023-02-12T09:45:21;11.60;10.40;6.00
12246;PMS7003;6186;52.022;4.692;2023-02-12T09:50:43;14.40;12.80;6.20
12246;PMS7003;6186;52.022;4.692;2023-02-12T09:53:16;14.80;13.80;7.80
12246;PMS7003;6186;52.022;4.692;2023-02-12T09:55:45;16.00;13.40;7.00
12246;PMS7003;6186;52.022;4.692;2023-02-12T09:58:16;12.25;12.00;7.00
12246;PMS7003;6186;52.022;4.692;2023-02-12T10:00:48;14.40;13.00;8.00
12246;PMS7003;6186;52.022;4.692;2023-02-12T10:03:14;12.75;12.00;7.00
12246;PMS7003;6186;52.022;4.692;2023-02-12T10:13:44;12.25;12.00;8.00
12246;PMS7003;6186;52.022;4.692;2023-02-12T10:19:25;15.40;12.80;6.80
12246;PMS7003;6186;52.022;4.692;2023-02-12T10:25:03;16.00;14.00;7.20
12246;PMS7003;6186;52.022;4.692;2023-02-12T10:27:43;15.40;14.00;7.40
12246;PMS7003;6186;52.022;4.692;2023-02-12T10:30:15;14.00;12.20;7.00
12246;PMS7003;6186;52.022;4.692;2023-02-12T10:32:45;15.40;12.80;7.00
12246;PMS7003;6186;52.022;4.692;2023-02-12T10:35:15;15.80;13.00;6.40
12246;PMS7003;6186;52.022;4.692;2023-02-12T10:37:42;12.60;11.40;6.20
12246;PMS7003;6186;52.022;4.692;2023-02-12T10:42:54;14.80;12.00;7.00
12246;PMS7003;6186;52.022;4.692;2023-02-12T10:45:43;13.40;12.00;7.00
12246;PMS7003;6186;52.022;4.692;2023-02-12T10:50:40;16.40;15.20;7.80
12246;PMS7003;6186;52.022;4.692;2023-02-12T10:53:17;12.20;10.20;6.00
12246;PMS7003;6186;52.022;4.692;2023-02-12T10:55:50;14.80;13.60;7.00
12246;PMS7003;6186;52.022;4.692;2023-02-12T10:58:34;13.00;11.60;6.80
12246;PMS7003;6186;52.022;4.692;2023-02-12T11:01:00;11.60;10.80;5.40
12246;PMS7003;6186;52.022;4.692;2023-02-12T11:03:28;13.60;11.20;5.40
12246;PMS7003;6186;52.022;4.692;2023-02-12T11:06:09;16.60;15.20;7.60
12246;PMS7003;6186;52.022;4.692;2023-02-12T11:08:40;14.60;13.40;7.40
12246;PMS7003;6186;52.022;4.692;2023-02-12T11:13:36;14.60;12.40;7.00
12246;PMS7003;6186;52.022;4.692;2023-02-12T11:16:04;13.80;11.20;7.00
12246;PMS7003;6186;52.022;4.692;2023-02-12T11:18:30;15.40;14.40;7.80
12246;PMS7003;6186;52.022;4.692;2023-02-12T11:20:59;13.80;13.20;7.40
12246;PMS7003;6186;52.022;4.692;2023-02-12T11:23:33;14.60;13.40;7.20
12246;PMS7003;6186;52.022;4.692;2023-02-12T11:28:30;13.00;12.25;6.25
12246;PMS7003;6186;52.022;4.692;2023-02-12T11:31:19;14.60;12.40;7.00
12246;PMS7003;6186;52.022;4.692;2023-02-12T11:34:05;15.60;13.40;6.40
12246;PMS7003;6186;52.022;4.692;2023-02-12T11:36:38;14.20;11.60;7.00
12246;PMS7003;6186;52.022;4.692;2023-02-12T11:39:14;14.40;13.40;7.00
12246;PMS7003;6186;52.022;4.692;2023-02-12T11:41:53;13.60;11.40;7.00
12246;PMS7003;6186;52.022;4.692;2023-02-12T11:44:40;13.60;13.00;7.00
12246;PMS7003;6186;52.022;4.692;2023-02-12T11:47:19;13.00;12.60;7.40
12246;PMS7003;6186;52.022;4.692;2023-02-12T11:50:14;15.40;13.60;7.00
12246;PMS7003;6186;52.022;4.692;2023-02-12T11:52:42;13.40;13.00;7.40
12246;PMS7003;6186;52.022;4.692;2023-02-12T11:55:20;15.40;14.40;7.40
12246;PMS7003;6186;52.022;4.692;2023-02-12T11:57:48;15.20;14.00;7.80
12246;PMS7003;6186;52.022;4.692;2023-02-12T12:02:49;13.00;12.60;7.40
12246;PMS7003;6186;52.022;4.692;2023-02-12T12:05:28;14.80;10.80;7.60
12246;PMS7003;6186;52.022;4.692;2023-02-12T12:08:10;17.00;14.20;7.80
12246;PMS7003;6186;52.022;4.692;2023-02-12T12:10:46;15.60;14.20;7.20
12246;PMS7003;6186;52.022;4.692;2023-02-12T12:13:20;14.40;13.00;7.00
12246;PMS7003;6186;52.022;4.692;2023-02-12T12:15:55;14.40;13.00;6.60
12246;PMS7003;6186;52.022;4.692;2023-02-12T12:19:04;15.40;13.80;7.00
12246;PMS7003;6186;52.022;4.692;2023-02-12T12:27:07;15.00;14.40;7.60
12246;PMS7003;6186;52.022;4.692;2023-02-12T12:30:03;14.60;13.60;8.00
12246;PMS7003;6186;52.022;4.692;2023-02-12T12:32:35;11.00;10.20;5.20
12246;PMS7003;6186;52.022;4.692;2023-02-12T12:35:08;14.80;12.00;5.80
12246;PMS7003;6186;52.022;4.692;2023-02-12T12:40:32;14.20;13.00;7.00
12246;PMS7003;6186;52.022;4.692;2023-02-12T12:46:28;11.40;9.20;5.40
12246;PMS7003;6186;52.022;4.692;2023-02-12T12:49:03;13.00;11.40;6.80
12246;PMS7003;6186;52.022;4.692;2023-02-12T12:54:24;17.20;14.00;7.00
12246;PMS7003;6186;52.022;4.692;2023-02-12T12:59:46;15.20;11.80;7.00
12246;PMS7003;6186;52.022;4.692;2023-02-12T13:13:37;15.20;11.60;7.00
12246;PMS7003;6186;52.022;4.692;2023-02-12T13:18:47;11.40;10.20;6.80
12246;PMS7003;6186;52.022;4.692;2023-02-12T13:26:58;9.00;8.60;4.40
12246;PMS7003;6186;52.022;4.692;2023-02-12T13:29:39;9.00;9.00;3.20
12246;PMS7003;6186;52.022;4.692;2023-02-12T13:34:45;10.00;8.00;3.20
12246;PMS7003;6186;52.022;4.692;2023-02-12T13:37:14;8.60;8.00;4.00
12246;PMS7003;6186;52.022;4.692;2023-02-12T13:39:44;8.40;8.00;3.00
12246;PMS7003;6186;52.022;4.692;2023-02-12T13:51:00;7.40;7.20;3.00
12246;PMS7003;6186;52.022;4.692;2023-02-12T13:56:05;8.60;6.60;3.00
12246;PMS7003;6186;52.022;4.692;2023-02-12T14:03:35;8.80;6.80;3.00
12246;PMS7003;6186;52.022;4.692;2023-02-12T14:08:36;8.40;8.00;4.00
12246;PMS7003;6186;52.022;4.692;2023-02-12T14:11:08;9.80;8.80;4.20
12246;PMS7003;6186;52.022;4.692;2023-02-12T14:13:45;9.80;8.00;3.60
12246;PMS7003;6186;52.022;4.692;2023-02-12T14:19:14;10.60;10.20;5.40
12246;PMS7003;6186;52.022;4.692;2023-02-12T14:21:57;10.60;9.00;4.00
12246;PMS7003;6186;52.022;4.692;2023-02-12T14:24:58;11.40;9.60;4.40
12246;PMS7003;6186;52.022;4.692;2023-02-12T14:37:57;12.20;11.00;5.40
12246;PMS7003;6186;52.022;4.692;2023-02-12T14:43:01;13.40;11.60;5.40
12246;PMS7003;6186;52.022;4.692;2023-02-12T14:45:47;12.80;10.80;5.40
12246;PMS7003;6186;52.022;4.692;2023-02-12T14:51:15;13.00;13.00;5.60
12246;PMS7003;6186;52.022;4.692;2023-02-12T14:53:46;16.00;12.80;6.40
12246;PMS7003;6186;52.022;4.692;2023-02-12T14:56:19;14.40;12.00;5.80
12246;PMS7003;6186;52.022;4.692;2023-02-12T14:58:48;10.80;9.00;6.00
12246;PMS7003;6186;52.022;4.692;2023-02-12T15:01:16;13.40;12.00;6.00
12246;PMS7003;6186;52.022;4.692;2023-02-12T15:03:53;12.80;9.00;4.00
12246;PMS7003;6186;52.022;4.692;2023-02-12T15:06:22;17.40;12.00;6.60
12246;PMS7003;6186;52.022;4.692;2023-02-12T15:09:09;17.80;12.20;7.00
12246;PMS7003;6186;52.022;4.692;2023-02-12T15:11:47;14.20;12.80;6.40
12246;PMS7003;6186;52.022;4.692;2023-02-12T15:14:21;15.00;13.60;7.00
12246;PMS7003;6186;52.022;4.692;2023-02-12T15:17:01;14.00;11.40;5.40
12246;PMS7003;6186;52.022;4.692;2023-02-12T15:27:44;20.20;14.80;7.80
12246;PMS7003;6186;52.022;4.692;2023-02-12T15:30:15;18.80;14.80;7.20
12246;PMS7003;6186;52.022;4.692;2023-02-12T15:32:43;18.60;16.40;7.80
12246;PMS7003;6186;52.022;4.692;2023-02-12T15:35:28;18.80;14.00;7.00
12246;PMS7003;6186;52.022;4.692;2023-02-12T15:37:56;14.60;13.00;7.00
12246;PMS7003;6186;52.022;4.692;2023-02-12T15:40:25;13.20;11.00;6.00
12246;PMS7003;6186;52.022;4.692;2023-02-12T15:45:24;15.20;13.00;6.00
12246;PMS7003;6186;52.022;4.692;2023-02-12T15:50:49;19.00;14.00;7.00
12246;PMS7003;6186;52.022;4.692;2023-02-12T15:53:15;13.00;10.40;5.20
12246;PMS7003;6186;52.022;4.692;2023-02-12T15:55:42;13.00;10.80;5.20
12246;PMS7003;6186;52.022;4.692;2023-02-12T15:58:23;13.20;11.20;5.40
12246;PMS7003;6186;52.022;4.692;2023-02-12T16:00:51;12.40;9.60;4.00
12246;PMS7003;6186;52.022;4.692;2023-02-12T16:03:25;15.00;12.00;6.40
12246;PMS7003;6186;52.022;4.692;2023-02-12T16:05:54;14.40;13.60;6.00
12246;PMS7003;6186;52.022;4.692;2023-02-12T16:08:25;13.60;12.00;6.00
12246;PMS7003;6186;52.022;4.692;2023-02-12T16:10:52;9.60;8.40;4.00
12246;PMS7003;6186;52.022;4.692;2023-02-12T16:13:20;13.60;8.60;4.00
12246;PMS7003;6186;52.022;4.692;2023-02-12T16:16:03;15.00;13.00;5.60
12246;PMS7003;6186;52.022;4.692;2023-02-12T16:18:31;13.60;11.40;4.00
12246;PMS7003;6186;52.022;4.692;2023-02-12T16:21:03;15.25;11.25;3.50
12246;PMS7003;6186;52.022;4.692;2023-02-12T16:23:34;9.00;8.40;3.80
12246;PMS7003;6186;52.022;4.692;2023-02-12T16:26:00;13.20;9.60;4.00
12246;PMS7003;6186;52.022;4.692;2023-02-12T16:28:26;13.40;12.00;5.60
12246;PMS7003;6186;52.022;4.692;2023-02-12T16:31:05;10.20;9.40;6.00
12246;PMS7003;6186;52.022;4.692;2023-02-12T16:36:05;18.60;13.80;5.60
12246;PMS7003;6186;52.022;4.692;2023-02-12T16:38:52;14.00;12.40;4.40
12246;PMS7003;6186;52.022;4.692;2023-02-12T16:41:23;15.00;13.00;5.40
12246;PMS7003;6186;52.022;4.692;2023-02-12T16:46:26;10.80;10.00;5.20
12246;PMS7003;6186;52.022;4.692;2023-02-12T16:48:54;17.20;13.40;6.80
12246;PMS7003;6186;52.022;4.692;2023-02-12T16:51:24;17.80;16.00;7.40
12246;PMS7003;6186;52.022;4.692;2023-02-12T16:53:55;14.80;13.20;7.00
12246;PMS7003;6186;52.022;4.692;2023-02-12T16:56:26;17.40;13.40;6.00
12246;PMS7003;6186;52.022;4.692;2023-02-12T16:58:55;18.80;14.60;7.00
12246;PMS7003;6186;52.022;4.692;2023-02-12T17:03:53;15.00;13.60;6.60
12246;PMS7003;6186;52.022;4.692;2023-02-12T17:06:23;11.60;10.80;6.60
12246;PMS7003;6186;52.022;4.692;2023-02-12T17:08:50;19.20;14.40;7.60
12246;PMS7003;6186;52.022;4.692;2023-02-12T17:11:17;15.60;13.20;6.80
12246;PMS7003;6186;52.022;4.692;2023-02-12T17:13:47;17.60;14.00;7.00
12246;PMS7003;6186;52.022;4.692;2023-02-12T17:16:14;15.40;14.40;7.00
12246;PMS7003;6186;52.022;4.692;2023-02-12T17:18:39;17.00;12.20;6.00
12246;PMS7003;6186;52.022;4.692;2023-02-12T17:21:13;15.75;13.00;7.50
12246;PMS7003;6186;52.022;4.692;2023-02-12T17:23:52;19.40;15.00;8.00
12246;PMS7003;6186;52.022;4.692;2023-02-12T17:26:20;16.60;15.20;8.00
12246;PMS7003;6186;52.022;4.692;2023-02-12T17:28:49;14.80;14.00;7.00
12246;PMS7003;6186;52.022;4.692;2023-02-12T17:31:14;16.25;13.25;7.00
12246;PMS7003;6186;52.022;4.692;2023-02-12T17:33:40;14.00;13.00;7.00
12246;PMS7003;6186;52.022;4.692;2023-02-12T17:36:05;15.00;14.50;8.00
12246;PMS7003;6186;52.022;4.692;2023-02-12T17:38:31;15.25;13.00;7.00
12246;PMS7003;6186;52.022;4.692;2023-02-12T17:40:56;21.50;17.75;9.00
12246;PMS7003;6186;52.022;4.692;2023-02-12T17:43:22;16.25;13.50;7.00